sensor_id;sensor_type;location;lat;lon;timestamp;P1;durP1;ratioP1;P2;durP2;ratioP2
11675;SDS011;5894;42.768;23.404;2023-08-08T00:01:42;1.75;;;1.20;;
11675;SDS011;5894;42.768;23.404;2023-08-08T00:04:09;1.10;;;1.00;;
11675;SDS011;5894;42.768;23.404;2023-08-08T00:06:36;1.52;;;1.42;;
11675;SDS011;5894;42.768;23.404;2023-08-08T00:09:04;1.58;;;0.98;;
11675;SDS011;5894;42.768;23.404;2023-08-08T00:11:32;1.00;;;1.00;;
11675;SDS011;5894;42.768;23.404;2023-08-08T00:14:00;2.47;;;1.10;;
11675;SDS011;5894;42.768;23.404;2023-08-08T00:16:27;1.77;;;1.10;;
11675;SDS011;5894;42.768;23.404;2023-08-08T00:18:54;1.80;;;1.13;;
11675;SDS011;5894;42.768;23.404;2023-08-08T00:21:22;4.63;;;1.35;;
11675;SDS011;5894;42.768;23.404;2023-08-08T00:23:49;2.65;;;1.00;;
11675;SDS011;5894;42.768;23.404;2023-08-08T00:26:16;1.10;;;1.00;;
11675;SDS011;5894;42.768;23.404;2023-08-08T00:28:43;1.00;;;0.90;;
11675;SDS011;5894;42.768;23.404;2023-08-08T00:31:12;1.40;;;1.00;;
11675;SDS011;5894;42.768;23.404;2023-08-08T00:33:43;4.65;;;1.15;;
11675;SDS011;5894;42.768;23.404;2023-08-08T00:36:13;1.73;;;1.10;;
11675;SDS011;5894;42.768;23.404;2023-08-08T00:38:40;1.58;;;1.20;;
11675;SDS011;5894;42.768;23.404;2023-08-08T00:41:11;1.58;;;1.15;;
11675;SDS011;5894;42.768;23.404;2023-08-08T00:43:38;1.70;;;1.20;;
11675;SDS011;5894;42.768;23.404;2023-08-08T00:46:05;2.47;;;1.00;;
11675;SDS011;5894;42.768;23.404;2023-08-08T00:48:34;3.50;;;1.08;;
11675;SDS011;5894;42.768;23.404;2023-08-08T00:51:02;1.65;;;1.13;;
11675;SDS011;5894;42.768;23.404;2023-08-08T00:53:32;2.15;;;1.15;;
11675;SDS011;5894;42.768;23.404;2023-08-08T00:56:00;1.77;;;1.13;;
11675;SDS011;5894;42.768;23.404;2023-08-08T00:58:27;1.90;;;1.40;;
11675;SDS011;5894;42.768;23.404;2023-08-08T01:00:55;2.03;;;1.15;;
11675;SDS011;5894;42.768;23.404;2023-08-08T01:03:25;2.67;;;1.20;;
11675;SDS011;5894;42.768;23.404;2023-08-08T01:05:57;2.45;;;1.42;;
11675;SDS011;5894;42.768;23.404;2023-08-08T01:08:33;1.67;;;1.35;;
11675;SDS011;5894;42.768;23.404;2023-08-08T01:11:06;2.40;;;1.30;;
11675;SDS011;5894;42.768;23.404;2023-08-08T01:13:33;1.80;;;1.20;;
11675;SDS011;5894;42.768;23.404;2023-08-08T01:16:02;1.60;;;1.20;;
11675;SDS011;5894;42.768;23.404;2023-08-08T01:18:31;1.88;;;1.30;;
11675;SDS011;5894;42.768;23.404;2023-08-08T01:21:01;1.40;;;1.30;;
11675;SDS011;5894;42.768;23.404;2023-08-08T01:23:33;1.35;;;1.20;;
11675;SDS011;5894;42.768;23.404;2023-08-08T01:26:09;1.52;;;1.15;;
11675;SDS011;5894;42.768;23.404;2023-08-08T01:28:36;2.10;;;1.10;;
11675;SDS011;5894;42.768;23.404;2023-08-08T01:31:04;2.08;;;1.20;;
11675;SDS011;5894;42.768;23.404;2023-08-08T01:33:33;1.20;;;1.10;;
11675;SDS011;5894;42.768;23.404;2023-08-08T01:36:04;1.65;;;1.23;;
11675;SDS011;5894;42.768;23.404;2023-08-08T01:38:40;3.05;;;1.40;;
11675;SDS011;5894;42.768;23.404;2023-08-08T01:41:11;3.85;;;1.30;;
11675;SDS011;5894;42.768;23.404;2023-08-08T01:43:41;4.18;;;1.20;;
11675;SDS011;5894;42.768;23.404;2023-08-08T01:46:08;2.25;;;1.10;;
11675;SDS011;5894;42.768;23.404;2023-08-08T01:48:36;6.07;;;1.52;;
11675;SDS011;5894;42.768;23.404;2023-08-08T01:51:03;2.28;;;1.25;;
11675;SDS011;5894;42.768;23.404;2023-08-08T01:53:31;1.77;;;1.25;;
11675;SDS011;5894;42.768;23.404;2023-08-08T01:55:58;1.50;;;1.40;;
11675;SDS011;5894;42.768;23.404;2023-08-08T01:58:27;3.63;;;1.20;;
11675;SDS011;5894;42.768;23.404;2023-08-08T02:00:54;3.45;;;1.35;;
11675;SDS011;5894;42.768;23.404;2023-08-08T02:03:21;2.58;;;1.25;;
11675;SDS011;5894;42.768;23.404;2023-08-08T02:05:48;2.20;;;1.50;;
11675;SDS011;5894;42.768;23.404;2023-08-08T02:08:15;2.50;;;1.20;;
11675;SDS011;5894;42.768;23.404;2023-08-08T02:10:43;3.58;;;1.30;;
11675;SDS011;5894;42.768;23.404;2023-08-08T02:13:10;1.98;;;1.40;;
11675;SDS011;5894;42.768;23.404;2023-08-08T02:15:39;2.90;;;1.30;;
11675;SDS011;5894;42.768;23.404;2023-08-08T02:18:06;1.38;;;1.20;;
11675;SDS011;5894;42.768;23.404;2023-08-08T02:20:34;2.35;;;1.30;;
11675;SDS011;5894;42.768;23.404;2023-08-08T02:23:02;3.40;;;1.23;;
11675;SDS011;5894;42.768;23.404;2023-08-08T02:25:30;2.63;;;1.33;;
11675;SDS011;5894;42.768;23.404;2023-08-08T02:27:57;1.70;;;1.30;;
11675;SDS011;5894;42.768;23.404;2023-08-08T02:30:25;1.75;;;1.27;;
11675;SDS011;5894;42.768;23.404;2023-08-08T02:32:53;1.42;;;1.33;;
11675;SDS011;5894;42.768;23.404;2023-08-08T02:35:20;4.60;;;1.50;;
11675;SDS011;5894;42.768;23.404;2023-08-08T02:37:47;2.45;;;1.50;;
11675;SDS011;5894;42.768;23.404;2023-08-08T02:40:15;2.90;;;1.40;;
11675;SDS011;5894;42.768;23.404;2023-08-08T02:42:42;2.65;;;1.40;;
11675;SDS011;5894;42.768;23.404;2023-08-08T02:45:09;2.85;;;1.40;;
11675;SDS011;5894;42.768;23.404;2023-08-08T02:47:37;1.90;;;1.20;;
11675;SDS011;5894;42.768;23.404;2023-08-08T02:50:06;1.45;;;1.35;;
11675;SDS011;5894;42.768;23.404;2023-08-08T02:52:34;2.10;;;1.40;;
11675;SDS011;5894;42.768;23.404;2023-08-08T02:55:01;1.60;;;1.33;;
11675;SDS011;5894;42.768;23.404;2023-08-08T02:57:29;1.65;;;1.55;;
11675;SDS011;5894;42.768;23.404;2023-08-08T02:59:56;1.50;;;1.20;;
11675;SDS011;5894;42.768;23.404;2023-08-08T03:02:23;2.75;;;1.38;;
11675;SDS011;5894;42.768;23.404;2023-08-08T03:04:51;1.60;;;1.50;;
11675;SDS011;5894;42.768;23.404;2023-08-08T03:07:22;1.67;;;1.58;;
11675;SDS011;5894;42.768;23.404;2023-08-08T03:09:49;2.60;;;1.50;;
11675;SDS011;5894;42.768;23.404;2023-08-08T03:12:18;1.85;;;1.70;;
11675;SDS011;5894;42.768;23.404;2023-08-08T03:14:46;1.75;;;1.50;;
11675;SDS011;5894;42.768;23.404;2023-08-08T03:17:13;1.98;;;1.88;;
11675;SDS011;5894;42.768;23.404;2023-08-08T03:19:40;2.83;;;2.15;;
11675;SDS011;5894;42.768;23.404;2023-08-08T03:22:08;3.53;;;1.95;;
11675;SDS011;5894;42.768;23.404;2023-08-08T03:24:38;3.40;;;1.88;;
11675;SDS011;5894;42.768;23.404;2023-08-08T03:27:06;2.05;;;1.60;;
11675;SDS011;5894;42.768;23.404;2023-08-08T03:29:33;2.35;;;1.90;;
11675;SDS011;5894;42.768;23.404;2023-08-08T03:32:00;2.95;;;1.83;;
11675;SDS011;5894;42.768;23.404;2023-08-08T03:34:30;2.50;;;1.50;;
11675;SDS011;5894;42.768;23.404;2023-08-08T03:36:59;5.15;;;2.00;;
11675;SDS011;5894;42.768;23.404;2023-08-08T03:39:26;3.22;;;1.75;;
11675;SDS011;5894;42.768;23.404;2023-08-08T03:41:54;2.25;;;2.00;;
11675;SDS011;5894;42.768;23.404;2023-08-08T03:44:22;3.00;;;2.15;;
11675;SDS011;5894;42.768;23.404;2023-08-08T03:46:49;2.85;;;1.98;;
11675;SDS011;5894;42.768;23.404;2023-08-08T03:49:16;2.00;;;1.90;;
11675;SDS011;5894;42.768;23.404;2023-08-08T03:51:43;3.20;;;2.13;;
11675;SDS011;5894;42.768;23.404;2023-08-08T03:54:11;2.55;;;2.22;;
11675;SDS011;5894;42.768;23.404;2023-08-08T03:56:38;4.82;;;2.50;;
11675;SDS011;5894;42.768;23.404;2023-08-08T03:59:08;2.72;;;2.20;;
11675;SDS011;5894;42.768;23.404;2023-08-08T04:01:36;3.28;;;2.45;;
11675;SDS011;5894;42.768;23.404;2023-08-08T04:04:03;2.78;;;2.58;;
11675;SDS011;5894;42.768;23.404;2023-08-08T04:06:31;3.05;;;2.53;;
11675;SDS011;5894;42.768;23.404;2023-08-08T04:08:58;2.58;;;2.38;;
11675;SDS011;5894;42.768;23.404;2023-08-08T04:11:26;2.85;;;2.38;;
11675;SDS011;5894;42.768;23.404;2023-08-08T04:13:53;2.55;;;2.35;;
11675;SDS011;5894;42.768;23.404;2023-08-08T04:16:21;2.92;;;2.60;;
11675;SDS011;5894;42.768;23.404;2023-08-08T04:18:48;3.00;;;2.80;;
11675;SDS011;5894;42.768;23.404;2023-08-08T04:21:16;3.33;;;2.90;;
11675;SDS011;5894;42.768;23.404;2023-08-08T04:23:45;3.28;;;3.03;;
11675;SDS011;5894;42.768;23.404;2023-08-08T04:26:12;3.25;;;2.95;;
11675;SDS011;5894;42.768;23.404;2023-08-08T04:28:40;4.18;;;3.30;;
11675;SDS011;5894;42.768;23.404;2023-08-08T04:31:07;3.90;;;3.60;;
11675;SDS011;5894;42.768;23.404;2023-08-08T04:33:35;4.03;;;3.60;;
11675;SDS011;5894;42.768;23.404;2023-08-08T04:36:05;3.33;;;2.95;;
11675;SDS011;5894;42.768;23.404;2023-08-08T04:38:33;3.20;;;2.95;;
11675;SDS011;5894;42.768;23.404;2023-08-08T04:41:00;3.92;;;3.53;;
11675;SDS011;5894;42.768;23.404;2023-08-08T04:43:27;4.03;;;3.38;;
11675;SDS011;5894;42.768;23.404;2023-08-08T04:45:54;4.57;;;3.70;;
11675;SDS011;5894;42.768;23.404;2023-08-08T04:48:21;3.92;;;3.08;;
11675;SDS011;5894;42.768;23.404;2023-08-08T04:50:49;5.13;;;3.40;;
11675;SDS011;5894;42.768;23.404;2023-08-08T04:53:17;3.92;;;3.55;;
11675;SDS011;5894;42.768;23.404;2023-08-08T04:55:44;4.82;;;3.15;;
11675;SDS011;5894;42.768;23.404;2023-08-08T04:58:11;4.32;;;3.45;;
11675;SDS011;5894;42.768;23.404;2023-08-08T05:00:38;3.00;;;2.80;;
11675;SDS011;5894;42.768;23.404;2023-08-08T05:03:05;3.20;;;3.00;;
11675;SDS011;5894;42.768;23.404;2023-08-08T05:05:32;3.58;;;3.28;;
11675;SDS011;5894;42.768;23.404;2023-08-08T05:08:01;5.30;;;3.72;;
11675;SDS011;5894;42.768;23.404;2023-08-08T05:10:28;3.47;;;3.25;;
11675;SDS011;5894;42.768;23.404;2023-08-08T05:12:56;3.90;;;3.53;;
11675;SDS011;5894;42.768;23.404;2023-08-08T05:15:23;3.88;;;3.58;;
11675;SDS011;5894;42.768;23.404;2023-08-08T05:17:50;4.05;;;3.65;;
11675;SDS011;5894;42.768;23.404;2023-08-08T05:20:19;4.30;;;3.90;;
11675;SDS011;5894;42.768;23.404;2023-08-08T05:22:46;4.00;;;3.70;;
11675;SDS011;5894;42.768;23.404;2023-08-08T05:25:15;4.30;;;3.92;;
11675;SDS011;5894;42.768;23.404;2023-08-08T05:27:43;4.30;;;4.00;;
11675;SDS011;5894;42.768;23.404;2023-08-08T05:30:10;3.88;;;3.53;;
11675;SDS011;5894;42.768;23.404;2023-08-08T05:32:37;4.78;;;3.30;;
11675;SDS011;5894;42.768;23.404;2023-08-08T05:35:05;3.35;;;3.10;;
11675;SDS011;5894;42.768;23.404;2023-08-08T05:37:33;4.40;;;3.00;;
11675;SDS011;5894;42.768;23.404;2023-08-08T05:40:00;4.25;;;3.13;;
11675;SDS011;5894;42.768;23.404;2023-08-08T05:42:32;5.53;;;3.25;;
11675;SDS011;5894;42.768;23.404;2023-08-08T05:44:59;3.72;;;3.00;;
11675;SDS011;5894;42.768;23.404;2023-08-08T05:47:27;2.97;;;2.67;;
11675;SDS011;5894;42.768;23.404;2023-08-08T05:49:54;4.18;;;2.92;;
11675;SDS011;5894;42.768;23.404;2023-08-08T05:52:21;3.80;;;2.60;;
11675;SDS011;5894;42.768;23.404;2023-08-08T05:54:48;2.53;;;2.33;;
11675;SDS011;5894;42.768;23.404;2023-08-08T05:57:15;4.85;;;2.45;;
11675;SDS011;5894;42.768;23.404;2023-08-08T05:59:44;3.00;;;2.15;;
11675;SDS011;5894;42.768;23.404;2023-08-08T06:02:11;3.03;;;2.20;;
11675;SDS011;5894;42.768;23.404;2023-08-08T06:04:38;5.35;;;2.17;;
11675;SDS011;5894;42.768;23.404;2023-08-08T06:07:05;2.13;;;2.03;;
11675;SDS011;5894;42.768;23.404;2023-08-08T06:09:32;1.90;;;1.80;;
11675;SDS011;5894;42.768;23.404;2023-08-08T06:12:02;2.15;;;1.95;;
11675;SDS011;5894;42.768;23.404;2023-08-08T06:14:29;2.30;;;2.10;;
11675;SDS011;5894;42.768;23.404;2023-08-08T06:16:58;2.95;;;2.22;;
11675;SDS011;5894;42.768;23.404;2023-08-08T06:19:26;2.85;;;2.20;;
11675;SDS011;5894;42.768;23.404;2023-08-08T06:21:53;2.45;;;2.25;;
11675;SDS011;5894;42.768;23.404;2023-08-08T06:24:20;2.30;;;2.10;;
11675;SDS011;5894;42.768;23.404;2023-08-08T06:26:47;4.10;;;2.10;;
11675;SDS011;5894;42.768;23.404;2023-08-08T06:29:14;5.40;;;2.00;;
11675;SDS011;5894;42.768;23.404;2023-08-08T06:31:42;2.30;;;2.00;;
11675;SDS011;5894;42.768;23.404;2023-08-08T06:34:10;2.80;;;1.85;;
11675;SDS011;5894;42.768;23.404;2023-08-08T06:36:37;4.90;;;2.10;;
11675;SDS011;5894;42.768;23.404;2023-08-08T06:39:04;2.53;;;2.00;;
11675;SDS011;5894;42.768;23.404;2023-08-08T06:41:31;10.63;;;4.68;;
11675;SDS011;5894;42.768;23.404;2023-08-08T06:43:59;4.25;;;2.30;;
11675;SDS011;5894;42.768;23.404;2023-08-08T06:46:26;3.25;;;2.10;;
11675;SDS011;5894;42.768;23.404;2023-08-08T06:48:53;2.42;;;2.22;;
11675;SDS011;5894;42.768;23.404;2023-08-08T06:51:24;2.55;;;2.35;;
11675;SDS011;5894;42.768;23.404;2023-08-08T06:53:52;2.80;;;2.33;;
11675;SDS011;5894;42.768;23.404;2023-08-08T06:56:19;2.70;;;2.38;;
11675;SDS011;5894;42.768;23.404;2023-08-08T06:58:46;5.63;;;2.50;;
11675;SDS011;5894;42.768;23.404;2023-08-08T07:01:13;2.60;;;2.40;;
11675;SDS011;5894;42.768;23.404;2023-08-08T07:03:40;2.53;;;2.33;;
11675;SDS011;5894;42.768;23.404;2023-08-08T07:06:09;2.40;;;2.25;;
11675;SDS011;5894;42.768;23.404;2023-08-08T07:08:37;2.70;;;2.50;;
11675;SDS011;5894;42.768;23.404;2023-08-08T07:11:09;2.35;;;2.22;;
11675;SDS011;5894;42.768;23.404;2023-08-08T07:13:36;2.50;;;2.30;;
11675;SDS011;5894;42.768;23.404;2023-08-08T07:16:03;2.40;;;2.20;;
11675;SDS011;5894;42.768;23.404;2023-08-08T07:18:30;2.30;;;2.10;;
11675;SDS011;5894;42.768;23.404;2023-08-08T07:20:58;2.42;;;2.22;;
11675;SDS011;5894;42.768;23.404;2023-08-08T07:23:25;2.00;;;1.90;;
11675;SDS011;5894;42.768;23.404;2023-08-08T07:25:53;2.15;;;1.98;;
11675;SDS011;5894;42.768;23.404;2023-08-08T07:28:20;7.38;;;2.08;;
11675;SDS011;5894;42.768;23.404;2023-08-08T07:30:47;4.45;;;2.15;;
11675;SDS011;5894;42.768;23.404;2023-08-08T07:33:14;2.33;;;1.90;;
11675;SDS011;5894;42.768;23.404;2023-08-08T07:35:44;3.78;;;1.85;;
11675;SDS011;5894;42.768;23.404;2023-08-08T07:38:11;2.28;;;2.08;;
11675;SDS011;5894;42.768;23.404;2023-08-08T07:40:38;2.30;;;2.20;;
11675;SDS011;5894;42.768;23.404;2023-08-08T07:43:07;2.50;;;2.30;;
11675;SDS011;5894;42.768;23.404;2023-08-08T07:45:34;2.65;;;2.13;;
11675;SDS011;5894;42.768;23.404;2023-08-08T07:48:02;1.98;;;1.88;;
11675;SDS011;5894;42.768;23.404;2023-08-08T07:50:30;2.33;;;2.10;;
11675;SDS011;5894;42.768;23.404;2023-08-08T07:56:39;2.58;;;1.70;;
11675;SDS011;5894;42.768;23.404;2023-08-08T07:59:09;4.20;;;2.08;;
11675;SDS011;5894;42.768;23.404;2023-08-08T08:01:36;2.88;;;2.00;;
11675;SDS011;5894;42.768;23.404;2023-08-08T08:04:03;3.60;;;1.95;;
11675;SDS011;5894;42.768;23.404;2023-08-08T08:06:30;2.38;;;2.10;;
11675;SDS011;5894;42.768;23.404;2023-08-08T08:08:58;2.72;;;1.90;;
11675;SDS011;5894;42.768;23.404;2023-08-08T08:11:25;2.00;;;1.80;;
11675;SDS011;5894;42.768;23.404;2023-08-08T08:13:52;1.60;;;1.50;;
11675;SDS011;5894;42.768;23.404;2023-08-08T08:16:20;2.10;;;1.55;;
11675;SDS011;5894;42.768;23.404;2023-08-08T08:18:47;1.70;;;1.60;;
11675;SDS011;5894;42.768;23.404;2023-08-08T08:21:14;4.03;;;1.80;;
11675;SDS011;5894;42.768;23.404;2023-08-08T08:23:42;2.25;;;1.40;;
11675;SDS011;5894;42.768;23.404;2023-08-08T08:26:09;2.10;;;1.83;;
11675;SDS011;5894;42.768;23.404;2023-08-08T08:28:37;2.03;;;1.30;;
11675;SDS011;5894;42.768;23.404;2023-08-08T08:31:05;1.40;;;1.30;;
11675;SDS011;5894;42.768;23.404;2023-08-08T08:33:34;1.73;;;1.50;;
11675;SDS011;5894;42.768;23.404;2023-08-08T08:36:01;1.30;;;1.20;;
11675;SDS011;5894;42.768;23.404;2023-08-08T08:38:28;2.28;;;1.65;;
11675;SDS011;5894;42.768;23.404;2023-08-08T08:40:56;1.52;;;1.42;;
11675;SDS011;5894;42.768;23.404;2023-08-08T08:43:23;1.73;;;1.33;;
11675;SDS011;5894;42.768;23.404;2023-08-08T08:45:51;1.40;;;1.30;;
11675;SDS011;5894;42.768;23.404;2023-08-08T08:48:19;1.63;;;1.52;;
11675;SDS011;5894;42.768;23.404;2023-08-08T08:50:50;5.90;;;1.48;;
11675;SDS011;5894;42.768;23.404;2023-08-08T08:53:17;3.10;;;1.33;;
11675;SDS011;5894;42.768;23.404;2023-08-08T08:55:45;1.58;;;1.48;;
11675;SDS011;5894;42.768;23.404;2023-08-08T08:58:13;1.75;;;1.65;;
11675;SDS011;5894;42.768;23.404;2023-08-08T09:00:42;1.70;;;1.60;;
11675;SDS011;5894;42.768;23.404;2023-08-08T09:03:10;3.65;;;1.70;;
11675;SDS011;5894;42.768;23.404;2023-08-08T09:05:38;1.80;;;1.70;;
11675;SDS011;5894;42.768;23.404;2023-08-08T09:08:08;1.58;;;1.48;;
11675;SDS011;5894;42.768;23.404;2023-08-08T09:10:37;2.08;;;1.70;;
11675;SDS011;5894;42.768;23.404;2023-08-08T09:13:04;3.88;;;1.50;;
11675;SDS011;5894;42.768;23.404;2023-08-08T09:15:32;1.60;;;1.50;;
11675;SDS011;5894;42.768;23.404;2023-08-08T09:17:59;1.77;;;1.67;;
11675;SDS011;5894;42.768;23.404;2023-08-08T09:20:27;3.13;;;1.80;;
11675;SDS011;5894;42.768;23.404;2023-08-08T09:22:54;2.53;;;1.60;;
11675;SDS011;5894;42.768;23.404;2023-08-08T09:25:23;1.77;;;1.67;;
11675;SDS011;5894;42.768;23.404;2023-08-08T09:27:51;1.70;;;1.60;;
11675;SDS011;5894;42.768;23.404;2023-08-08T09:30:18;1.60;;;1.50;;
11675;SDS011;5894;42.768;23.404;2023-08-08T09:32:46;1.73;;;1.63;;
11675;SDS011;5894;42.768;23.404;2023-08-08T09:35:14;2.85;;;1.55;;
11675;SDS011;5894;42.768;23.404;2023-08-08T09:37:41;3.15;;;2.00;;
11675;SDS011;5894;42.768;23.404;2023-08-08T09:40:08;1.80;;;1.70;;
11675;SDS011;5894;42.768;23.404;2023-08-08T09:42:39;1.60;;;1.50;;
11675;SDS011;5894;42.768;23.404;2023-08-08T09:45:08;1.80;;;1.70;;
11675;SDS011;5894;42.768;23.404;2023-08-08T09:47:36;6.18;;;1.80;;
11675;SDS011;5894;42.768;23.404;2023-08-08T09:50:04;2.80;;;1.80;;
11675;SDS011;5894;42.768;23.404;2023-08-08T09:52:33;1.85;;;1.75;;
11675;SDS011;5894;42.768;23.404;2023-08-08T09:55:02;1.75;;;1.63;;
11675;SDS011;5894;42.768;23.404;2023-08-08T09:57:31;1.70;;;1.60;;
11675;SDS011;5894;42.768;23.404;2023-08-08T10:00:00;4.22;;;2.10;;
11675;SDS011;5894;42.768;23.404;2023-08-08T10:02:31;2.08;;;1.88;;
11675;SDS011;5894;42.768;23.404;2023-08-08T10:04:59;2.10;;;1.90;;
11675;SDS011;5894;42.768;23.404;2023-08-08T10:07:27;3.67;;;2.08;;
11675;SDS011;5894;42.768;23.404;2023-08-08T10:09:55;2.05;;;1.95;;
11675;SDS011;5894;42.768;23.404;2023-08-08T10:12:23;2.20;;;2.10;;
11675;SDS011;5894;42.768;23.404;2023-08-08T10:14:52;2.25;;;2.13;;
11675;SDS011;5894;42.768;23.404;2023-08-08T10:17:20;2.13;;;1.98;;
11675;SDS011;5894;42.768;23.404;2023-08-08T10:19:51;4.35;;;1.80;;
11675;SDS011;5894;42.768;23.404;2023-08-08T10:22:20;2.08;;;1.98;;
11675;SDS011;5894;42.768;23.404;2023-08-08T10:24:50;1.90;;;1.80;;
11675;SDS011;5894;42.768;23.404;2023-08-08T10:27:27;2.00;;;1.90;;
11675;SDS011;5894;42.768;23.404;2023-08-08T10:30:00;2.00;;;1.90;;
11675;SDS011;5894;42.768;23.404;2023-08-08T10:32:37;3.10;;;2.20;;
11675;SDS011;5894;42.768;23.404;2023-08-08T10:35:05;2.13;;;2.03;;
11675;SDS011;5894;42.768;23.404;2023-08-08T10:37:33;2.22;;;2.03;;
11675;SDS011;5894;42.768;23.404;2023-08-08T10:40:00;2.50;;;1.88;;
11675;SDS011;5894;42.768;23.404;2023-08-08T10:42:31;4.13;;;2.00;;
11675;SDS011;5894;42.768;23.404;2023-08-08T10:44:59;1.90;;;1.80;;
11675;SDS011;5894;42.768;23.404;2023-08-08T10:47:32;2.28;;;1.80;;
11675;SDS011;5894;42.768;23.404;2023-08-08T10:50:03;2.55;;;2.20;;
11675;SDS011;5894;42.768;23.404;2023-08-08T10:52:32;1.80;;;1.63;;
11675;SDS011;5894;42.768;23.404;2023-08-08T10:55:00;3.97;;;1.95;;
11675;SDS011;5894;42.768;23.404;2023-08-08T10:57:28;1.75;;;1.65;;
11675;SDS011;5894;42.768;23.404;2023-08-08T11:02:47;1.88;;;1.77;;
11675;SDS011;5894;42.768;23.404;2023-08-08T11:05:16;1.88;;;1.77;;
11675;SDS011;5894;42.768;23.404;2023-08-08T11:07:43;1.55;;;1.45;;
11675;SDS011;5894;42.768;23.404;2023-08-08T11:10:10;1.90;;;1.80;;
11675;SDS011;5894;42.768;23.404;2023-08-08T11:12:38;1.95;;;1.75;;
11675;SDS011;5894;42.768;23.404;2023-08-08T11:15:06;2.10;;;1.80;;
11675;SDS011;5894;42.768;23.404;2023-08-08T11:17:34;5.07;;;2.15;;
11675;SDS011;5894;42.768;23.404;2023-08-08T11:20:03;2.05;;;1.90;;
11675;SDS011;5894;42.768;23.404;2023-08-08T11:22:31;1.83;;;1.73;;
11675;SDS011;5894;42.768;23.404;2023-08-08T11:24:58;5.10;;;1.90;;
11675;SDS011;5894;42.768;23.404;2023-08-08T11:27:28;3.30;;;1.63;;
11675;SDS011;5894;42.768;23.404;2023-08-08T11:29:56;1.73;;;1.63;;
11675;SDS011;5894;42.768;23.404;2023-08-08T11:32:24;1.90;;;1.67;;
11675;SDS011;5894;42.768;23.404;2023-08-08T11:34:54;2.63;;;1.90;;
11675;SDS011;5894;42.768;23.404;2023-08-08T11:37:22;2.03;;;1.83;;
11675;SDS011;5894;42.768;23.404;2023-08-08T11:39:49;1.70;;;1.50;;
11675;SDS011;5894;42.768;23.404;2023-08-08T11:42:17;1.70;;;1.60;;
11675;SDS011;5894;42.768;23.404;2023-08-08T11:44:44;1.67;;;1.55;;
11675;SDS011;5894;42.768;23.404;2023-08-08T11:47:12;1.70;;;1.60;;
11675;SDS011;5894;42.768;23.404;2023-08-08T11:49:40;1.52;;;1.42;;
11675;SDS011;5894;42.768;23.404;2023-08-08T11:52:08;1.60;;;1.50;;
11675;SDS011;5894;42.768;23.404;2023-08-08T11:54:37;1.52;;;1.42;;
11675;SDS011;5894;42.768;23.404;2023-08-08T11:57:05;1.70;;;1.60;;
11675;SDS011;5894;42.768;23.404;2023-08-08T11:59:32;2.47;;;1.60;;
11675;SDS011;5894;42.768;23.404;2023-08-08T12:01:59;1.50;;;1.40;;
11675;SDS011;5894;42.768;23.404;2023-08-08T12:04:27;1.27;;;1.25;;
11675;SDS011;5894;42.768;23.404;2023-08-08T12:07:00;1.58;;;1.48;;
11675;SDS011;5894;42.768;23.404;2023-08-08T12:09:29;1.65;;;1.42;;
11675;SDS011;5894;42.768;23.404;2023-08-08T12:12:00;2.13;;;1.30;;
11675;SDS011;5894;42.768;23.404;2023-08-08T12:14:27;1.50;;;1.40;;
11675;SDS011;5894;42.768;23.404;2023-08-08T12:16:54;1.50;;;1.40;;
11675;SDS011;5894;42.768;23.404;2023-08-08T12:19:23;1.40;;;1.30;;
11675;SDS011;5894;42.768;23.404;2023-08-08T12:21:51;1.40;;;1.30;;
11675;SDS011;5894;42.768;23.404;2023-08-08T12:24:18;1.50;;;1.40;;
11675;SDS011;5894;42.768;23.404;2023-08-08T12:26:46;2.78;;;1.40;;
11675;SDS011;5894;42.768;23.404;2023-08-08T12:29:14;2.83;;;1.25;;
11675;SDS011;5894;42.768;23.404;2023-08-08T12:31:41;1.77;;;1.30;;
11675;SDS011;5894;42.768;23.404;2023-08-08T12:34:08;2.92;;;1.10;;
11675;SDS011;5894;42.768;23.404;2023-08-08T12:36:36;1.63;;;1.40;;
11675;SDS011;5894;42.768;23.404;2023-08-08T12:39:05;1.45;;;1.35;;
11675;SDS011;5894;42.768;23.404;2023-08-08T12:41:32;2.25;;;1.20;;
11675;SDS011;5894;42.768;23.404;2023-08-08T12:44:01;1.30;;;1.25;;
11675;SDS011;5894;42.768;23.404;2023-08-08T12:46:30;2.78;;;1.35;;
11675;SDS011;5894;42.768;23.404;2023-08-08T12:48:57;1.20;;;1.10;;
11675;SDS011;5894;42.768;23.404;2023-08-08T12:51:24;2.53;;;1.30;;
11675;SDS011;5894;42.768;23.404;2023-08-08T12:53:52;1.13;;;1.13;;
11675;SDS011;5894;42.768;23.404;2023-08-08T12:56:19;3.95;;;1.40;;
11675;SDS011;5894;42.768;23.404;2023-08-08T12:58:46;1.48;;;1.38;;
11675;SDS011;5894;42.768;23.404;2023-08-08T13:01:13;1.45;;;1.35;;
11675;SDS011;5894;42.768;23.404;2023-08-08T13:03:42;4.68;;;1.30;;
11675;SDS011;5894;42.768;23.404;2023-08-08T13:06:09;1.42;;;1.20;;
11675;SDS011;5894;42.768;23.404;2023-08-08T13:08:38;2.80;;;1.40;;
11675;SDS011;5894;42.768;23.404;2023-08-08T13:11:06;1.90;;;1.30;;
11675;SDS011;5894;42.768;23.404;2023-08-08T13:13:33;1.20;;;1.10;;
11675;SDS011;5894;42.768;23.404;2023-08-08T13:16:00;1.17;;;1.17;;
11675;SDS011;5894;42.768;23.404;2023-08-08T13:18:29;1.42;;;1.33;;
11675;SDS011;5894;42.768;23.404;2023-08-08T13:20:57;1.63;;;1.20;;
11675;SDS011;5894;42.768;23.404;2023-08-08T13:23:25;1.55;;;1.10;;
11675;SDS011;5894;42.768;23.404;2023-08-08T13:25:52;1.60;;;1.50;;
11675;SDS011;5894;42.768;23.404;2023-08-08T13:28:19;1.00;;;1.00;;
11675;SDS011;5894;42.768;23.404;2023-08-08T13:30:47;1.00;;;1.00;;
11675;SDS011;5894;42.768;23.404;2023-08-08T13:33:14;1.55;;;1.30;;
11675;SDS011;5894;42.768;23.404;2023-08-08T13:35:43;1.27;;;1.20;;
11675;SDS011;5894;42.768;23.404;2023-08-08T13:38:12;1.30;;;1.20;;
11675;SDS011;5894;42.768;23.404;2023-08-08T13:40:40;2.33;;;1.20;;
11675;SDS011;5894;42.768;23.404;2023-08-08T13:43:07;2.03;;;1.23;;
11675;SDS011;5894;42.768;23.404;2023-08-08T13:45:35;1.20;;;1.10;;
11675;SDS011;5894;42.768;23.404;2023-08-08T13:48:02;1.38;;;1.30;;
11675;SDS011;5894;42.768;23.404;2023-08-08T13:50:30;1.45;;;1.20;;
11675;SDS011;5894;42.768;23.404;2023-08-08T13:52:59;1.50;;;1.27;;
11675;SDS011;5894;42.768;23.404;2023-08-08T13:55:28;1.30;;;1.20;;
11675;SDS011;5894;42.768;23.404;2023-08-08T13:57:55;1.08;;;1.08;;
11675;SDS011;5894;42.768;23.404;2023-08-08T14:00:23;1.83;;;1.20;;
11675;SDS011;5894;42.768;23.404;2023-08-08T14:02:50;2.75;;;1.40;;
11675;SDS011;5894;42.768;23.404;2023-08-08T14:05:17;1.25;;;1.15;;
11675;SDS011;5894;42.768;23.404;2023-08-08T14:07:44;2.20;;;1.20;;
11675;SDS011;5894;42.768;23.404;2023-08-08T14:10:11;1.30;;;1.20;;
11675;SDS011;5894;42.768;23.404;2023-08-08T14:12:40;1.30;;;1.20;;
11675;SDS011;5894;42.768;23.404;2023-08-08T14:15:08;1.35;;;1.25;;
11675;SDS011;5894;42.768;23.404;2023-08-08T14:17:35;1.20;;;1.10;;
11675;SDS011;5894;42.768;23.404;2023-08-08T14:20:03;1.30;;;1.20;;
11675;SDS011;5894;42.768;23.404;2023-08-08T14:22:30;1.10;;;1.10;;
11675;SDS011;5894;42.768;23.404;2023-08-08T14:25:00;1.40;;;1.10;;
11675;SDS011;5894;42.768;23.404;2023-08-08T14:27:27;1.08;;;1.08;;
11675;SDS011;5894;42.768;23.404;2023-08-08T14:29:59;1.10;;;1.10;;
11675;SDS011;5894;42.768;23.404;2023-08-08T14:32:27;1.73;;;1.00;;
11675;SDS011;5894;42.768;23.404;2023-08-08T14:34:55;1.13;;;1.02;;
11675;SDS011;5894;42.768;23.404;2023-08-08T14:37:23;2.10;;;1.20;;
11675;SDS011;5894;42.768;23.404;2023-08-08T14:39:50;4.68;;;3.17;;
11675;SDS011;5894;42.768;23.404;2023-08-08T14:42:18;4.28;;;2.22;;
11675;SDS011;5894;42.768;23.404;2023-08-08T14:44:45;4.22;;;1.45;;
11675;SDS011;5894;42.768;23.404;2023-08-08T14:47:14;1.92;;;1.10;;
11675;SDS011;5894;42.768;23.404;2023-08-08T14:49:41;1.02;;;1.02;;
11675;SDS011;5894;42.768;23.404;2023-08-08T14:52:08;1.15;;;1.10;;
11675;SDS011;5894;42.768;23.404;2023-08-08T14:54:36;1.27;;;1.00;;
11675;SDS011;5894;42.768;23.404;2023-08-08T14:57:04;1.00;;;1.00;;
11675;SDS011;5894;42.768;23.404;2023-08-08T14:59:31;1.17;;;1.10;;